sensor_id;sensor_type;location;lat;lon;timestamp;P1;P2;P0
62846;PMS5003;49477;35.676;139.586;2023-04-03T00:02:10;8;6;
62846;PMS5003;49477;35.676;139.586;2023-04-03T00:04:39;6;6;
62846;PMS5003;49477;35.676;139.586;2023-04-03T00:07:09;9;9;
62846;PMS5003;49477;35.676;139.586;2023-04-03T00:09:38;7;6;
62846;PMS5003;49477;35.676;139.586;2023-04-03T00:12:08;8;8;
62846;PMS5003;49477;35.676;139.586;2023-04-03T00:14:38;9;7;
62846;PMS5003;49477;35.676;139.586;2023-04-03T00:17:07;6;6;
62846;PMS5003;49477;35.676;139.586;2023-04-03T00:19:37;7;7;
62846;PMS5003;49477;35.676;139.586;2023-04-03T00:22:06;11;9;
62846;PMS5003;49477;35.676;139.586;2023-04-03T00:24:36;9;8;
62846;PMS5003;49477;35.676;139.586;2023-04-03T00:27:05;8;7;
62846;PMS5003;49477;35.676;139.586;2023-04-03T00:29:35;10;6;
62846;PMS5003;49477;35.676;139.586;2023-04-03T00:32:04;9;6;
62846;PMS5003;49477;35.676;139.586;2023-04-03T00:34:34;8;6;
62846;PMS5003;49477;35.676;139.586;2023-04-03T00:37:03;10;7;
62846;PMS5003;49477;35.676;139.586;2023-04-03T00:39:33;8;5;
62846;PMS5003;49477;35.676;139.586;2023-04-03T00:42:02;8;8;
62846;PMS5003;49477;35.676;139.586;2023-04-03T00:45:38;7;7;
62846;PMS5003;49477;35.676;139.586;2023-04-03T00:48:11;8;8;
62846;PMS5003;49477;35.676;139.586;2023-04-03T00:50:44;8;7;
62846;PMS5003;49477;35.676;139.586;2023-04-03T00:53:16;5;5;
62846;PMS5003;49477;35.676;139.586;2023-04-03T00:55:50;7;6;
62846;PMS5003;49477;35.676;139.586;2023-04-03T00:58:22;7;7;
62846;PMS5003;49477;35.676;139.586;2023-04-03T01:00:59;6;6;
62846;PMS5003;49477;35.676;139.586;2023-04-03T01:03:33;7;7;
62846;PMS5003;49477;35.676;139.586;2023-04-03T01:06:03;7;7;
62846;PMS5003;49477;35.676;139.586;2023-04-03T01:08:33;9;9;
62846;PMS5003;49477;35.676;139.586;2023-04-03T01:11:02;7;7;
62846;PMS5003;49477;35.676;139.586;2023-04-03T01:13:32;10;9;
62846;PMS5003;49477;35.676;139.586;2023-04-03T01:16:02;6;6;
62846;PMS5003;49477;35.676;139.586;2023-04-03T01:18:32;8;8;
62846;PMS5003;49477;35.676;139.586;2023-04-03T01:21:09;12;9;
62846;PMS5003;49477;35.676;139.586;2023-04-03T01:23:58;8;8;
62846;PMS5003;49477;35.676;139.586;2023-04-03T01:26:39;8;7;
62846;PMS5003;49477;35.676;139.586;2023-04-03T01:29:08;10;8;
62846;PMS5003;49477;35.676;139.586;2023-04-03T01:31:54;9;9;
62846;PMS5003;49477;35.676;139.586;2023-04-03T01:34:25;7;7;
62846;PMS5003;49477;35.676;139.586;2023-04-03T01:36:55;10;10;
62846;PMS5003;49477;35.676;139.586;2023-04-03T01:39:25;13;11;
62846;PMS5003;49477;35.676;139.586;2023-04-03T01:41:54;11;9;
62846;PMS5003;49477;35.676;139.586;2023-04-03T01:44:24;9;9;
62846;PMS5003;49477;35.676;139.586;2023-04-03T01:46:53;10;9;
62846;PMS5003;49477;35.676;139.586;2023-04-03T01:49:23;8;8;
62846;PMS5003;49477;35.676;139.586;2023-04-03T01:51:52;5;5;
62846;PMS5003;49477;35.676;139.586;2023-04-03T01:54:22;9;8;
62846;PMS5003;49477;35.676;139.586;2023-04-03T01:56:51;9;9;
62846;PMS5003;49477;35.676;139.586;2023-04-03T01:59:20;11;8;
62846;PMS5003;49477;35.676;139.586;2023-04-03T02:01:50;10;9;
62846;PMS5003;49477;35.676;139.586;2023-04-03T02:04:19;7;7;
62846;PMS5003;49477;35.676;139.586;2023-04-03T02:06:49;11;8;
62846;PMS5003;49477;35.676;139.586;2023-04-03T02:09:18;12;9;
62846;PMS5003;49477;35.676;139.586;2023-04-03T02:11:47;11;10;
62846;PMS5003;49477;35.676;139.586;2023-04-03T02:14:16;11;10;
62846;PMS5003;49477;35.676;139.586;2023-04-03T02:16:46;7;7;
62846;PMS5003;49477;35.676;139.586;2023-04-03T02:19:15;9;8;
62846;PMS5003;49477;35.676;139.586;2023-04-03T02:21:44;10;9;
62846;PMS5003;49477;35.676;139.586;2023-04-03T02:24:14;10;10;
62846;PMS5003;49477;35.676;139.586;2023-04-03T02:26:43;10;9;
62846;PMS5003;49477;35.676;139.586;2023-04-03T02:29:13;10;10;
62846;PMS5003;49477;35.676;139.586;2023-04-03T02:31:42;10;10;
62846;PMS5003;49477;35.676;139.586;2023-04-03T02:34:12;10;9;
62846;PMS5003;49477;35.676;139.586;2023-04-03T02:36:41;8;8;
62846;PMS5003;49477;35.676;139.586;2023-04-03T02:39:11;10;10;
62846;PMS5003;49477;35.676;139.586;2023-04-03T02:41:40;11;11;
62846;PMS5003;49477;35.676;139.586;2023-04-03T02:44:10;13;9;
62846;PMS5003;49477;35.676;139.586;2023-04-03T02:46:39;10;10;
62846;PMS5003;49477;35.676;139.586;2023-04-03T02:49:09;12;11;
62846;PMS5003;49477;35.676;139.586;2023-04-03T02:51:38;10;10;
62846;PMS5003;49477;35.676;139.586;2023-04-03T02:54:08;10;8;
62846;PMS5003;49477;35.676;139.586;2023-04-03T02:56:37;8;8;
62846;PMS5003;49477;35.676;139.586;2023-04-03T02:59:06;10;10;
62846;PMS5003;49477;35.676;139.586;2023-04-03T03:01:36;10;8;
62846;PMS5003;49477;35.676;139.586;2023-04-03T03:04:06;8;8;
62846;PMS5003;49477;35.676;139.586;2023-04-03T03:06:35;9;9;
62846;PMS5003;49477;35.676;139.586;2023-04-03T03:09:04;11;9;
62846;PMS5003;49477;35.676;139.586;2023-04-03T03:11:34;11;10;
62846;PMS5003;49477;35.676;139.586;2023-04-03T03:14:04;12;11;
62846;PMS5003;49477;35.676;139.586;2023-04-03T03:16:33;11;11;
62846;PMS5003;49477;35.676;139.586;2023-04-03T03:19:02;12;10;
62846;PMS5003;49477;35.676;139.586;2023-04-03T03:21:32;9;9;
62846;PMS5003;49477;35.676;139.586;2023-04-03T03:24:01;8;8;
62846;PMS5003;49477;35.676;139.586;2023-04-03T03:26:30;10;10;
62846;PMS5003;49477;35.676;139.586;2023-04-03T03:29:00;10;9;
62846;PMS5003;49477;35.676;139.586;2023-04-03T03:31:29;11;11;
62846;PMS5003;49477;35.676;139.586;2023-04-03T03:33:59;10;7;
62846;PMS5003;49477;35.676;139.586;2023-04-03T03:36:28;10;8;
62846;PMS5003;49477;35.676;139.586;2023-04-03T03:38:58;13;9;
62846;PMS5003;49477;35.676;139.586;2023-04-03T03:41:27;6;6;
62846;PMS5003;49477;35.676;139.586;2023-04-03T03:43:57;8;7;
62846;PMS5003;49477;35.676;139.586;2023-04-03T03:46:26;13;10;
62846;PMS5003;49477;35.676;139.586;2023-04-03T03:48:56;6;6;
62846;PMS5003;49477;35.676;139.586;2023-04-03T03:51:25;8;8;
62846;PMS5003;49477;35.676;139.586;2023-04-03T03:53:55;16;9;
62846;PMS5003;49477;35.676;139.586;2023-04-03T03:56:24;8;7;
62846;PMS5003;49477;35.676;139.586;2023-04-03T03:58:54;10;9;
62846;PMS5003;49477;35.676;139.586;2023-04-03T04:01:23;9;8;
62846;PMS5003;49477;35.676;139.586;2023-04-03T04:03:52;11;11;
62846;PMS5003;49477;35.676;139.586;2023-04-03T04:06:22;9;7;
62846;PMS5003;49477;35.676;139.586;2023-04-03T04:08:52;9;7;
62846;PMS5003;49477;35.676;139.586;2023-04-03T04:11:21;7;7;
62846;PMS5003;49477;35.676;139.586;2023-04-03T04:13:50;9;9;
62846;PMS5003;49477;35.676;139.586;2023-04-03T04:16:20;11;8;
62846;PMS5003;49477;35.676;139.586;2023-04-03T04:18:49;8;8;
62846;PMS5003;49477;35.676;139.586;2023-04-03T04:21:19;9;9;
62846;PMS5003;49477;35.676;139.586;2023-04-03T04:23:48;9;8;
62846;PMS5003;49477;35.676;139.586;2023-04-03T04:26:18;10;10;
62846;PMS5003;49477;35.676;139.586;2023-04-03T04:28:47;9;9;
62846;PMS5003;49477;35.676;139.586;2023-04-03T04:31:16;11;8;
62846;PMS5003;49477;35.676;139.586;2023-04-03T04:33:46;10;9;
62846;PMS5003;49477;35.676;139.586;2023-04-03T04:36:15;10;10;
62846;PMS5003;49477;35.676;139.586;2023-04-03T04:38:45;12;10;
62846;PMS5003;49477;35.676;139.586;2023-04-03T04:41:14;8;7;
62846;PMS5003;49477;35.676;139.586;2023-04-03T04:43:44;10;7;
62846;PMS5003;49477;35.676;139.586;2023-04-03T04:46:13;7;7;
62846;PMS5003;49477;35.676;139.586;2023-04-03T04:48:43;10;8;
62846;PMS5003;49477;35.676;139.586;2023-04-03T04:51:12;10;8;
62846;PMS5003;49477;35.676;139.586;2023-04-03T04:53:42;9;7;
62846;PMS5003;49477;35.676;139.586;2023-04-03T04:56:11;10;8;
62846;PMS5003;49477;35.676;139.586;2023-04-03T04:58:41;8;7;
62846;PMS5003;49477;35.676;139.586;2023-04-03T05:01:10;7;7;
62846;PMS5003;49477;35.676;139.586;2023-04-03T05:03:40;7;7;
62846;PMS5003;49477;35.676;139.586;2023-04-03T05:06:09;10;9;
62846;PMS5003;49477;35.676;139.586;2023-04-03T05:08:39;8;8;
62846;PMS5003;49477;35.676;139.586;2023-04-03T05:11:08;10;6;
62846;PMS5003;49477;35.676;139.586;2023-04-03T05:13:38;8;8;
62846;PMS5003;49477;35.676;139.586;2023-04-03T05:16:07;9;8;
62846;PMS5003;49477;35.676;139.586;2023-04-03T05:18:37;11;10;
62846;PMS5003;49477;35.676;139.586;2023-04-03T05:21:06;8;7;
62846;PMS5003;49477;35.676;139.586;2023-04-03T05:23:36;9;6;
62846;PMS5003;49477;35.676;139.586;2023-04-03T05:26:05;8;8;
62846;PMS5003;49477;35.676;139.586;2023-04-03T05:28:34;7;7;
62846;PMS5003;49477;35.676;139.586;2023-04-03T05:31:04;8;7;
62846;PMS5003;49477;35.676;139.586;2023-04-03T05:33:33;9;7;
62846;PMS5003;49477;35.676;139.586;2023-04-03T05:36:03;9;9;
62846;PMS5003;49477;35.676;139.586;2023-04-03T05:38:33;7;6;
62846;PMS5003;49477;35.676;139.586;2023-04-03T05:41:03;7;6;
62846;PMS5003;49477;35.676;139.586;2023-04-03T05:43:32;11;8;
62846;PMS5003;49477;35.676;139.586;2023-04-03T05:46:01;10;8;
62846;PMS5003;49477;35.676;139.586;2023-04-03T05:48:31;12;8;
62846;PMS5003;49477;35.676;139.586;2023-04-03T05:51:00;8;7;
62846;PMS5003;49477;35.676;139.586;2023-04-03T05:53:31;7;7;
62846;PMS5003;49477;35.676;139.586;2023-04-03T05:56:02;7;6;
62846;PMS5003;49477;35.676;139.586;2023-04-03T05:58:31;10;6;
62846;PMS5003;49477;35.676;139.586;2023-04-03T06:01:00;8;8;
62846;PMS5003;49477;35.676;139.586;2023-04-03T06:03:30;10;6;
62846;PMS5003;49477;35.676;139.586;2023-04-03T06:06:00;8;8;
62846;PMS5003;49477;35.676;139.586;2023-04-03T06:08:31;8;8;
62846;PMS5003;49477;35.676;139.586;2023-04-03T06:11:01;9;9;
62846;PMS5003;49477;35.676;139.586;2023-04-03T06:13:30;7;7;
62846;PMS5003;49477;35.676;139.586;2023-04-03T06:16:00;11;8;
62846;PMS5003;49477;35.676;139.586;2023-04-03T06:18:29;10;9;
62846;PMS5003;49477;35.676;139.586;2023-04-03T06:20:59;9;9;
62846;PMS5003;49477;35.676;139.586;2023-04-03T06:23:28;6;6;
62846;PMS5003;49477;35.676;139.586;2023-04-03T06:25:58;7;7;
62846;PMS5003;49477;35.676;139.586;2023-04-03T06:28:27;8;8;
62846;PMS5003;49477;35.676;139.586;2023-04-03T06:30:57;11;8;
62846;PMS5003;49477;35.676;139.586;2023-04-03T06:33:26;7;7;
62846;PMS5003;49477;35.676;139.586;2023-04-03T06:35:56;7;7;
62846;PMS5003;49477;35.676;139.586;2023-04-03T06:38:26;9;7;
62846;PMS5003;49477;35.676;139.586;2023-04-03T06:40:55;9;9;
62846;PMS5003;49477;35.676;139.586;2023-04-03T06:43:25;8;8;
62846;PMS5003;49477;35.676;139.586;2023-04-03T06:45:54;7;7;
62846;PMS5003;49477;35.676;139.586;2023-04-03T06:48:24;8;8;
62846;PMS5003;49477;35.676;139.586;2023-04-03T06:50:53;10;8;
62846;PMS5003;49477;35.676;139.586;2023-04-03T06:53:23;7;6;
62846;PMS5003;49477;35.676;139.586;2023-04-03T06:55:52;6;6;
62846;PMS5003;49477;35.676;139.586;2023-04-03T06:58:22;9;8;
62846;PMS5003;49477;35.676;139.586;2023-04-03T07:00:51;8;8;
62846;PMS5003;49477;35.676;139.586;2023-04-03T07:03:21;15;8;
62846;PMS5003;49477;35.676;139.586;2023-04-03T07:05:50;10;7;
62846;PMS5003;49477;35.676;139.586;2023-04-03T07:08:20;8;8;
62846;PMS5003;49477;35.676;139.586;2023-04-03T07:10:49;8;8;
62846;PMS5003;49477;35.676;139.586;2023-04-03T07:13:18;9;8;
62846;PMS5003;49477;35.676;139.586;2023-04-03T07:15:48;7;6;
62846;PMS5003;49477;35.676;139.586;2023-04-03T07:18:18;10;8;
62846;PMS5003;49477;35.676;139.586;2023-04-03T07:20:47;8;8;
62846;PMS5003;49477;35.676;139.586;2023-04-03T07:23:16;12;9;
62846;PMS5003;49477;35.676;139.586;2023-04-03T07:25:46;6;6;
62846;PMS5003;49477;35.676;139.586;2023-04-03T07:28:18;7;7;
62846;PMS5003;49477;35.676;139.586;2023-04-03T07:30:49;10;10;
62846;PMS5003;49477;35.676;139.586;2023-04-03T07:33:21;8;8;
62846;PMS5003;49477;35.676;139.586;2023-04-03T07:35:51;8;7;
62846;PMS5003;49477;35.676;139.586;2023-04-03T07:38:20;9;8;
62846;PMS5003;49477;35.676;139.586;2023-04-03T07:40:50;6;6;
62846;PMS5003;49477;35.676;139.586;2023-04-03T07:43:20;8;8;
62846;PMS5003;49477;35.676;139.586;2023-04-03T07:45:50;6;6;
62846;PMS5003;49477;35.676;139.586;2023-04-03T07:48:20;7;7;
62846;PMS5003;49477;35.676;139.586;2023-04-03T07:50:51;6;6;
62846;PMS5003;49477;35.676;139.586;2023-04-03T07:53:20;10;8;
62846;PMS5003;49477;35.676;139.586;2023-04-03T07:55:49;8;8;
62846;PMS5003;49477;35.676;139.586;2023-04-03T07:58:19;9;8;
62846;PMS5003;49477;35.676;139.586;2023-04-03T08:00:48;8;7;
62846;PMS5003;49477;35.676;139.586;2023-04-03T08:03:18;6;6;
62846;PMS5003;49477;35.676;139.586;2023-04-03T08:05:48;9;9;
62846;PMS5003;49477;35.676;139.586;2023-04-03T08:08:18;6;6;
62846;PMS5003;49477;35.676;139.586;2023-04-03T08:10:50;7;6;
62846;PMS5003;49477;35.676;139.586;2023-04-03T08:13:20;8;8;
62846;PMS5003;49477;35.676;139.586;2023-04-03T08:15:50;8;6;
62846;PMS5003;49477;35.676;139.586;2023-04-03T08:18:19;8;6;
62846;PMS5003;49477;35.676;139.586;2023-04-03T08:20:49;7;7;
62846;PMS5003;49477;35.676;139.586;2023-04-03T08:23:18;10;8;
62846;PMS5003;49477;35.676;139.586;2023-04-03T08:25:48;10;9;
62846;PMS5003;49477;35.676;139.586;2023-04-03T08:28:19;11;8;
62846;PMS5003;49477;35.676;139.586;2023-04-03T08:30:48;8;8;
62846;PMS5003;49477;35.676;139.586;2023-04-03T08:33:18;8;8;
62846;PMS5003;49477;35.676;139.586;2023-04-03T08:35:48;7;7;
62846;PMS5003;49477;35.676;139.586;2023-04-03T08:38:18;9;8;
62846;PMS5003;49477;35.676;139.586;2023-04-03T08:40:47;10;6;
62846;PMS5003;49477;35.676;139.586;2023-04-03T08:43:34;8;8;
62846;PMS5003;49477;35.676;139.586;2023-04-03T08:46:14;7;7;
62846;PMS5003;49477;35.676;139.586;2023-04-03T08:48:49;7;7;
62846;PMS5003;49477;35.676;139.586;2023-04-03T08:51:21;6;6;
62846;PMS5003;49477;35.676;139.586;2023-04-03T08:53:53;6;6;
62846;PMS5003;49477;35.676;139.586;2023-04-03T08:56:26;9;8;
62846;PMS5003;49477;35.676;139.586;2023-04-03T08:58:58;8;6;
62846;PMS5003;49477;35.676;139.586;2023-04-03T09:01:33;7;7;
62846;PMS5003;49477;35.676;139.586;2023-04-03T09:04:09;9;8;
62846;PMS5003;49477;35.676;139.586;2023-04-03T09:06:41;5;5;
62846;PMS5003;49477;35.676;139.586;2023-04-03T09:09:18;7;6;
62846;PMS5003;49477;35.676;139.586;2023-04-03T09:11:59;8;7;
62846;PMS5003;49477;35.676;139.586;2023-04-03T09:14:38;5;5;
62846;PMS5003;49477;35.676;139.586;2023-04-03T09:17:13;4;3;
62846;PMS5003;49477;35.676;139.586;2023-04-03T09:19:50;9;7;
62846;PMS5003;49477;35.676;139.586;2023-04-03T09:22:24;9;6;
62846;PMS5003;49477;35.676;139.586;2023-04-03T09:24:57;7;6;
62846;PMS5003;49477;35.676;139.586;2023-04-03T09:27:30;7;6;
62846;PMS5003;49477;35.676;139.586;2023-04-03T09:29:59;8;6;
62846;PMS5003;49477;35.676;139.586;2023-04-03T09:32:29;7;4;
62846;PMS5003;49477;35.676;139.586;2023-04-03T09:35:01;7;6;
62846;PMS5003;49477;35.676;139.586;2023-04-03T09:37:36;5;5;
62846;PMS5003;49477;35.676;139.586;2023-04-03T09:40:27;6;6;
62846;PMS5003;49477;35.676;139.586;2023-04-03T09:42:59;5;5;
62846;PMS5003;49477;35.676;139.586;2023-04-03T09:45:46;6;5;
62846;PMS5003;49477;35.676;139.586;2023-04-03T09:48:17;5;4;
62846;PMS5003;49477;35.676;139.586;2023-04-03T09:50:56;5;5;
62846;PMS5003;49477;35.676;139.586;2023-04-03T09:53:28;8;4;
62846;PMS5003;49477;35.676;139.586;2023-04-03T09:56:01;9;6;
62846;PMS5003;49477;35.676;139.586;2023-04-03T09:58:32;7;7;
62846;PMS5003;49477;35.676;139.586;2023-04-03T10:01:04;4;4;
62846;PMS5003;49477;35.676;139.586;2023-04-03T10:03:47;5;5;
62846;PMS5003;49477;35.676;139.586;2023-04-03T10:06:33;6;4;
62846;PMS5003;49477;35.676;139.586;2023-04-03T10:09:06;8;5;
62846;PMS5003;49477;35.676;139.586;2023-04-03T10:11:57;4;4;
62846;PMS5003;49477;35.676;139.586;2023-04-03T10:14:28;5;5;
62846;PMS5003;49477;35.676;139.586;2023-04-03T10:17:01;3;3;
62846;PMS5003;49477;35.676;139.586;2023-04-03T10:19:41;4;4;
62846;PMS5003;49477;35.676;139.586;2023-04-03T10:22:18;3;3;
62846;PMS5003;49477;35.676;139.586;2023-04-03T10:24:57;2;2;
62846;PMS5003;49477;35.676;139.586;2023-04-03T10:27:39;5;4;
62846;PMS5003;49477;35.676;139.586;2023-04-03T10:30:28;4;4;
62846;PMS5003;49477;35.676;139.586;2023-04-03T10:33:15;4;4;
62846;PMS5003;49477;35.676;139.586;2023-04-03T10:35:53;5;4;
62846;PMS5003;49477;35.676;139.586;2023-04-03T10:38:32;4;4;
62846;PMS5003;49477;35.676;139.586;2023-04-03T10:41:10;5;4;
62846;PMS5003;49477;35.676;139.586;2023-04-03T10:43:47;3;3;
62846;PMS5003;49477;35.676;139.586;2023-04-03T10:46:28;6;4;
62846;PMS5003;49477;35.676;139.586;2023-04-03T10:49:08;4;3;
62846;PMS5003;49477;35.676;139.586;2023-04-03T10:51:47;3;3;
62846;PMS5003;49477;35.676;139.586;2023-04-03T10:54:24;5;5;
62846;PMS5003;49477;35.676;139.586;2023-04-03T10:57:00;5;3;
62846;PMS5003;49477;35.676;139.586;2023-04-03T10:59:32;5;4;
62846;PMS5003;49477;35.676;139.586;2023-04-03T11:02:06;5;5;
62846;PMS5003;49477;35.676;139.586;2023-04-03T11:04:42;3;3;
62846;PMS5003;49477;35.676;139.586;2023-04-03T11:07:17;3;3;
62846;PMS5003;49477;35.676;139.586;2023-04-03T11:09:49;2;2;
62846;PMS5003;49477;35.676;139.586;2023-04-03T11:12:25;6;4;
62846;PMS5003;49477;35.676;139.586;2023-04-03T11:15:00;5;5;
62846;PMS5003;49477;35.676;139.586;2023-04-03T11:17:33;5;5;
62846;PMS5003;49477;35.676;139.586;2023-04-03T11:20:08;6;5;
62846;PMS5003;49477;35.676;139.586;2023-04-03T11:22:47;6;5;
62846;PMS5003;49477;35.676;139.586;2023-04-03T11:25:21;5;3;
62846;PMS5003;49477;35.676;139.586;2023-04-03T11:27:55;5;5;
62846;PMS5003;49477;35.676;139.586;2023-04-03T11:30:28;4;4;
62846;PMS5003;49477;35.676;139.586;2023-04-03T11:33:12;6;4;
62846;PMS5003;49477;35.676;139.586;2023-04-03T11:35:49;3;3;
62846;PMS5003;49477;35.676;139.586;2023-04-03T11:38:25;4;4;
62846;PMS5003;49477;35.676;139.586;2023-04-03T11:40:57;6;5;
62846;PMS5003;49477;35.676;139.586;2023-04-03T11:43:28;3;3;
62846;PMS5003;49477;35.676;139.586;2023-04-03T11:45:58;4;4;
62846;PMS5003;49477;35.676;139.586;2023-04-03T11:48:47;4;4;
62846;PMS5003;49477;35.676;139.586;2023-04-03T11:51:49;7;4;
62846;PMS5003;49477;35.676;139.586;2023-04-03T11:54:51;7;6;
62846;PMS5003;49477;35.676;139.586;2023-04-03T11:58:22;3;3;
62846;PMS5003;49477;35.676;139.586;2023-04-03T12:00:54;4;4;
62846;PMS5003;49477;35.676;139.586;2023-04-03T12:03:57;8;6;
62846;PMS5003;49477;35.676;139.586;2023-04-03T12:07:12;3;3;
62846;PMS5003;49477;35.676;139.586;2023-04-03T12:09:56;4;4;
62846;PMS5003;49477;35.676;139.586;2023-04-03T12:12:31;4;4;
62846;PMS5003;49477;35.676;139.586;2023-04-03T12:15:46;4;4;
62846;PMS5003;49477;35.676;139.586;2023-04-03T12:18:43;3;3;
62846;PMS5003;49477;35.676;139.586;2023-04-03T12:21:22;3;3;
62846;PMS5003;49477;35.676;139.586;2023-04-03T12:24:31;3;3;
62846;PMS5003;49477;35.676;139.586;2023-04-03T12:27:03;5;5;
62846;PMS5003;49477;35.676;139.586;2023-04-03T12:29:43;5;5;
62846;PMS5003;49477;35.676;139.586;2023-04-03T12:32:22;4;4;
62846;PMS5003;49477;35.676;139.586;2023-04-03T12:35:07;5;4;
62846;PMS5003;49477;35.676;139.586;2023-04-03T12:38:57;4;4;
62846;PMS5003;49477;35.676;139.586;2023-04-03T12:41:37;4;3;
62846;PMS5003;49477;35.676;139.586;2023-04-03T12:44:17;6;6;
62846;PMS5003;49477;35.676;139.586;2023-04-03T12:47:01;5;5;
62846;PMS5003;49477;35.676;139.586;2023-04-03T12:49:39;3;3;
62846;PMS5003;49477;35.676;139.586;2023-04-03T12:52:17;4;4;
62846;PMS5003;49477;35.676;139.586;2023-04-03T12:54:52;6;5;
62846;PMS5003;49477;35.676;139.586;2023-04-03T12:57:23;5;5;
62846;PMS5003;49477;35.676;139.586;2023-04-03T12:59:53;3;3;
62846;PMS5003;49477;35.676;139.586;2023-04-03T13:02:24;4;4;
62846;PMS5003;49477;35.676;139.586;2023-04-03T13:04:56;4;4;
62846;PMS5003;49477;35.676;139.586;2023-04-03T13:07:27;5;3;
62846;PMS5003;49477;35.676;139.586;2023-04-03T13:10:00;6;4;
62846;PMS5003;49477;35.676;139.586;2023-04-03T13:12:45;7;4;
62846;PMS5003;49477;35.676;139.586;2023-04-03T13:15:18;3;2;
62846;PMS5003;49477;35.676;139.586;2023-04-03T13:17:49;7;4;
62846;PMS5003;49477;35.676;139.586;2023-04-03T13:20:21;6;4;
62846;PMS5003;49477;35.676;139.586;2023-04-03T13:22:55;4;4;
62846;PMS5003;49477;35.676;139.586;2023-04-03T13:25:28;7;7;
62846;PMS5003;49477;35.676;139.586;2023-04-03T13:28:00;4;4;
62846;PMS5003;49477;35.676;139.586;2023-04-03T13:30:32;6;6;
62846;PMS5003;49477;35.676;139.586;2023-04-03T13:33:05;4;4;
62846;PMS5003;49477;35.676;139.586;2023-04-03T13:35:47;4;4;
62846;PMS5003;49477;35.676;139.586;2023-04-03T13:38:25;5;5;
62846;PMS5003;49477;35.676;139.586;2023-04-03T13:40:58;5;4;
62846;PMS5003;49477;35.676;139.586;2023-04-03T13:43:29;8;4;
62846;PMS5003;49477;35.676;139.586;2023-04-03T13:46:03;5;4;
62846;PMS5003;49477;35.676;139.586;2023-04-03T13:48:50;6;6;
62846;PMS5003;49477;35.676;139.586;2023-04-03T13:51:22;6;5;
62846;PMS5003;49477;35.676;139.586;2023-04-03T13:53:54;4;4;
62846;PMS5003;49477;35.676;139.586;2023-04-03T13:56:29;6;5;
62846;PMS5003;49477;35.676;139.586;2023-04-03T13:59:03;5;5;
62846;PMS5003;49477;35.676;139.586;2023-04-03T14:01:48;4;4;
62846;PMS5003;49477;35.676;139.586;2023-04-03T14:04:20;5;5;
62846;PMS5003;49477;35.676;139.586;2023-04-03T14:06:52;6;6;
62846;PMS5003;49477;35.676;139.586;2023-04-03T14:09:21;4;4;
62846;PMS5003;49477;35.676;139.586;2023-04-03T14:11:53;5;5;
62846;PMS5003;49477;35.676;139.586;2023-04-03T14:14:26;4;4;
62846;PMS5003;49477;35.676;139.586;2023-04-03T14:17:00;6;6;
62846;PMS5003;49477;35.676;139.586;2023-04-03T14:19:31;5;5;
62846;PMS5003;49477;35.676;139.586;2023-04-03T14:22:07;6;5;
62846;PMS5003;49477;35.676;139.586;2023-04-03T14:24:43;6;6;
62846;PMS5003;49477;35.676;139.586;2023-04-03T14:27:16;6;5;
62846;PMS5003;49477;35.676;139.586;2023-04-03T14:29:48;5;5;
62846;PMS5003;49477;35.676;139.586;2023-04-03T14:32:19;5;5;
62846;PMS5003;49477;35.676;139.586;2023-04-03T14:34:50;6;5;
62846;PMS5003;49477;35.676;139.586;2023-04-03T14:37:22;5;5;
62846;PMS5003;49477;35.676;139.586;2023-04-03T14:39:53;6;4;
62846;PMS5003;49477;35.676;139.586;2023-04-03T14:42:25;6;6;
62846;PMS5003;49477;35.676;139.586;2023-04-03T14:44:55;4;4;
62846;PMS5003;49477;35.676;139.586;2023-04-03T14:47:26;4;4;
62846;PMS5003;49477;35.676;139.586;2023-04-03T14:49:58;4;4;
62846;PMS5003;49477;35.676;139.586;2023-04-03T14:52:28;4;4;
62846;PMS5003;49477;35.676;139.586;2023-04-03T14:55:00;7;6;
62846;PMS5003;49477;35.676;139.586;2023-04-03T14:57:31;5;5;
62846;PMS5003;49477;35.676;139.586;2023-04-03T15:00:03;5;5;
62846;PMS5003;49477;35.676;139.586;2023-04-03T15:02:35;6;4;
62846;PMS5003;49477;35.676;139.586;2023-04-03T15:05:07;6;5;
62846;PMS5003;49477;35.676;139.586;2023-04-03T15:07:37;7;6;
62846;PMS5003;49477;35.676;139.586;2023-04-03T15:10:14;3;3;
62846;PMS5003;49477;35.676;139.586;2023-04-03T15:12:46;4;4;
62846;PMS5003;49477;35.676;139.586;2023-04-03T15:15:17;6;6;
62846;PMS5003;49477;35.676;139.586;2023-04-03T15:17:50;3;3;
62846;PMS5003;49477;35.676;139.586;2023-04-03T15:20:23;4;4;
62846;PMS5003;49477;35.676;139.586;2023-04-03T15:22:54;9;8;
62846;PMS5003;49477;35.676;139.586;2023-04-03T15:25:23;9;6;
62846;PMS5003;49477;35.676;139.586;2023-04-03T15:27:53;9;6;
62846;PMS5003;49477;35.676;139.586;2023-04-03T15:30:24;8;6;
62846;PMS5003;49477;35.676;139.586;2023-04-03T15:32:53;5;3;
62846;PMS5003;49477;35.676;139.586;2023-04-03T15:35:23;5;5;
62846;PMS5003;49477;35.676;139.586;2023-04-03T15:37:58;7;5;
62846;PMS5003;49477;35.676;139.586;2023-04-03T15:40:27;6;6;
62846;PMS5003;49477;35.676;139.586;2023-04-03T15:42:56;5;5;
62846;PMS5003;49477;35.676;139.586;2023-04-03T15:45:27;5;5;
62846;PMS5003;49477;35.676;139.586;2023-04-03T15:47:58;6;5;
62846;PMS5003;49477;35.676;139.586;2023-04-03T15:50:28;5;5;
62846;PMS5003;49477;35.676;139.586;2023-04-03T15:52:59;4;3;
62846;PMS5003;49477;35.676;139.586;2023-04-03T15:55:29;6;6;
62846;PMS5003;49477;35.676;139.586;2023-04-03T15:58:00;10;8;
62846;PMS5003;49477;35.676;139.586;2023-04-03T16:00:30;8;5;
62846;PMS5003;49477;35.676;139.586;2023-04-03T16:03:01;8;6;
62846;PMS5003;49477;35.676;139.586;2023-04-03T16:05:36;7;7;
62846;PMS5003;49477;35.676;139.586;2023-04-03T16:08:06;9;7;
62846;PMS5003;49477;35.676;139.586;2023-04-03T16:10:36;6;6;
62846;PMS5003;49477;35.676;139.586;2023-04-03T16:13:05;6;6;
62846;PMS5003;49477;35.676;139.586;2023-04-03T16:15:35;7;7;
62846;PMS5003;49477;35.676;139.586;2023-04-03T16:18:04;7;7;
62846;PMS5003;49477;35.676;139.586;2023-04-03T16:20:35;6;6;
62846;PMS5003;49477;35.676;139.586;2023-04-03T16:23:04;5;5;
62846;PMS5003;49477;35.676;139.586;2023-04-03T16:25:34;6;5;
62846;PMS5003;49477;35.676;139.586;2023-04-03T16:28:03;6;6;
62846;PMS5003;49477;35.676;139.586;2023-04-03T16:30:33;4;4;
62846;PMS5003;49477;35.676;139.586;2023-04-03T16:33:03;4;4;
62846;PMS5003;49477;35.676;139.586;2023-04-03T16:35:32;6;6;
62846;PMS5003;49477;35.676;139.586;2023-04-03T16:38:02;10;7;
62846;PMS5003;49477;35.676;139.586;2023-04-03T16:40:31;8;5;
62846;PMS5003;49477;35.676;139.586;2023-04-03T16:43:01;6;6;
62846;PMS5003;49477;35.676;139.586;2023-04-03T16:45:30;4;4;
62846;PMS5003;49477;35.676;139.586;2023-04-03T16:48:00;3;3;
62846;PMS5003;49477;35.676;139.586;2023-04-03T16:50:29;7;6;
62846;PMS5003;49477;35.676;139.586;2023-04-03T16:52:58;8;6;